createdAt,value
2018-07-14T00:00:28.922Z,0
2018-07-14T00:01:30.584Z,0
2018-07-14T00:02:32.268Z,0
2018-07-14T00:03:33.925Z,0
2018-07-14T00:04:35.598Z,0
2018-07-14T00:05:37.255Z,0
2018-07-14T00:06:38.924Z,0
2018-07-14T00:07:40.593Z,0
2018-07-14T00:08:42.260Z,0
2018-07-14T00:09:43.930Z,0
2018-07-14T00:10:45.595Z,0
2018-07-14T00:11:47.256Z,0
2018-07-14T00:12:48.926Z,0
2018-07-14T00:13:50.588Z,0
2018-07-14T00:14:52.261Z,0
2018-07-14T00:15:53.924Z,0
2018-07-14T00:16:55.580Z,0
2018-07-14T00:17:57.252Z,0
2018-07-14T00:18:58.929Z,0
2018-07-14T00:20:00.595Z,0
2018-07-14T00:21:02.265Z,0
2018-07-14T00:22:03.924Z,0
2018-07-14T00:23:05.609Z,0
2018-07-14T00:24:07.270Z,0
2018-07-14T00:25:08.941Z,0
2018-07-14T00:26:10.607Z,0
2018-07-14T00:27:12.265Z,0
2018-07-14T00:28:13.938Z,0
2018-07-14T00:29:15.615Z,0
2018-07-14T00:30:17.280Z,0
2018-07-14T00:31:18.937Z,0
2018-07-14T00:32:20.606Z,0
2018-07-14T00:33:22.271Z,0
2018-07-14T00:34:23.935Z,0
2018-07-14T00:35:25.602Z,0
2018-07-14T00:36:27.279Z,0
2018-07-14T00:37:28.938Z,0
2018-07-14T00:38:30.600Z,0
2018-07-14T00:39:32.266Z,0
2018-07-14T00:40:33.936Z,0
2018-07-14T00:41:35.599Z,0
2018-07-14T00:42:37.267Z,0
2018-07-14T00:43:38.944Z,0
2018-07-14T00:44:40.593Z,0
2018-07-14T00:45:42.263Z,0
2018-07-14T00:46:43.923Z,0
2018-07-14T00:47:45.590Z,0
2018-07-14T00:48:47.263Z,0
2018-07-14T00:49:48.939Z,0
2018-07-14T00:50:50.612Z,0
2018-07-14T00:51:52.274Z,0
2018-07-14T00:52:53.947Z,0
2018-07-14T00:53:55.615Z,0
2018-07-14T00:54:57.281Z,0
2018-07-14T00:55:58.949Z,0
2018-07-14T00:57:00.616Z,0
2018-07-14T00:58:02.291Z,0
2018-07-14T00:59:03.957Z,0
2018-07-14T01:00:05.675Z,0
2018-07-14T01:01:07.343Z,0
2018-07-14T01:02:09.023Z,0
2018-07-14T01:03:10.711Z,0
2018-07-14T01:04:12.402Z,0
2018-07-14T01:05:14.062Z,0
2018-07-14T01:06:15.725Z,0
2018-07-14T01:07:17.389Z,0
2018-07-14T01:08:19.055Z,0
2018-07-14T01:09:20.726Z,0
2018-07-14T01:10:22.394Z,0
2018-07-14T01:11:24.063Z,0
2018-07-14T01:12:25.731Z,0
2018-07-14T01:13:27.399Z,0
2018-07-14T01:14:29.066Z,0
2018-07-14T01:15:30.735Z,0
2018-07-14T01:16:32.396Z,0
2018-07-14T01:17:34.068Z,0
2018-07-14T01:18:35.736Z,0
2018-07-14T01:19:37.405Z,0
2018-07-14T01:20:39.080Z,0
2018-07-14T01:21:40.739Z,0
2018-07-14T01:22:42.430Z,0
2018-07-14T01:23:44.114Z,0
2018-07-14T01:24:45.779Z,0
2018-07-14T01:25:47.437Z,0
2018-07-14T01:26:49.095Z,0
2018-07-14T01:27:50.761Z,0
2018-07-14T01:28:52.428Z,0
2018-07-14T01:29:54.101Z,0
2018-07-14T01:30:55.753Z,0
2018-07-14T01:31:57.425Z,0
2018-07-14T01:32:59.098Z,0
2018-07-14T01:34:00.778Z,0
2018-07-14T01:35:02.440Z,0
2018-07-14T01:36:04.100Z,0
2018-07-14T01:37:05.805Z,0
2018-07-14T01:38:07.474Z,0
2018-07-14T01:39:09.130Z,0
2018-07-14T01:40:10.819Z,0
2018-07-14T01:41:12.484Z,0
2018-07-14T01:42:14.150Z,0
2018-07-14T01:43:15.809Z,0
2018-07-14T01:44:17.466Z,0
2018-07-14T01:45:19.127Z,0
2018-07-14T01:46:20.799Z,0
2018-07-14T01:47:22.469Z,0
2018-07-14T01:48:24.138Z,0
2018-07-14T01:49:25.814Z,0
2018-07-14T01:50:27.480Z,0
2018-07-14T01:51:29.135Z,0
2018-07-14T01:52:30.806Z,0
2018-07-14T01:53:32.474Z,0
2018-07-14T01:54:34.141Z,0
2018-07-14T02:01:10.021Z,0
2018-07-14T02:02:11.680Z,0
2018-07-14T02:03:13.344Z,0
2018-07-14T02:04:15.004Z,0
2018-07-14T02:05:16.656Z,0
2018-07-14T02:06:18.320Z,0
2018-07-14T02:07:19.991Z,0
2018-07-14T02:08:21.661Z,0
2018-07-14T02:09:23.321Z,0
2018-07-14T02:10:25.000Z,0
2018-07-14T02:11:26.668Z,0
2018-07-14T02:12:28.323Z,0
2018-07-14T02:13:29.986Z,0
2018-07-14T02:14:31.650Z,0
2018-07-14T02:15:33.310Z,0
2018-07-14T02:16:34.979Z,0
2018-07-14T02:17:36.646Z,0
2018-07-14T02:18:38.317Z,0
2018-07-14T02:19:39.981Z,0
2018-07-14T02:20:41.749Z,0
2018-07-14T02:21:43.404Z,0
2018-07-14T02:22:45.064Z,0
2018-07-14T02:23:46.740Z,0
2018-07-14T02:24:48.411Z,0
2018-07-14T02:25:50.072Z,0
2018-07-14T02:26:51.750Z,0
2018-07-14T02:27:53.417Z,0
2018-07-14T02:28:55.104Z,0
2018-07-14T02:29:56.777Z,0
2018-07-14T02:30:58.437Z,0
2018-07-14T02:32:00.147Z,0
2018-07-14T02:33:01.823Z,0
2018-07-14T02:34:03.499Z,0
2018-07-14T02:35:05.168Z,0
2018-07-14T02:36:06.832Z,0
2018-07-14T02:37:08.494Z,0
2018-07-14T02:38:10.158Z,0
2018-07-14T02:39:11.816Z,0
2018-07-14T02:40:13.470Z,0
2018-07-14T02:41:15.147Z,0
2018-07-14T02:42:16.813Z,0
2018-07-14T02:43:18.472Z,4
2018-07-14T02:44:20.136Z,4
2018-07-14T02:45:21.817Z,4
2018-07-14T02:46:23.466Z,4
2018-07-14T02:47:25.145Z,4
2018-07-14T02:48:26.785Z,4
2018-07-14T02:49:28.459Z,4
2018-07-14T02:50:30.135Z,8
2018-07-14T02:51:31.813Z,4
2018-07-14T02:52:33.469Z,8
2018-07-14T02:53:35.131Z,8
2018-07-14T02:54:36.793Z,8
2018-07-14T02:55:38.467Z,12
2018-07-14T02:56:40.127Z,12
2018-07-14T02:57:41.799Z,12
2018-07-14T02:58:43.482Z,16
2018-07-14T02:59:45.228Z,20
2018-07-14T03:00:46.803Z,20
2018-07-14T03:01:48.477Z,24
2018-07-14T03:02:50.148Z,32
2018-07-14T03:03:51.820Z,32
2018-07-14T03:04:53.476Z,36
2018-07-14T03:05:55.157Z,44
2018-07-14T03:06:56.817Z,52
2018-07-14T03:07:58.494Z,56
2018-07-14T03:09:00.159Z,64
2018-07-14T03:10:01.815Z,72
2018-07-14T03:11:03.472Z,80
2018-07-14T03:12:05.142Z,92
2018-07-14T03:13:06.813Z,104
2018-07-14T03:14:08.484Z,116
2018-07-14T03:15:10.145Z,132
2018-07-14T03:16:11.810Z,148
2018-07-14T03:17:13.468Z,164
2018-07-14T03:18:15.136Z,180
2018-07-14T03:19:16.822Z,200
2018-07-14T03:20:18.513Z,216
2018-07-14T03:21:20.174Z,236
2018-07-14T03:22:21.851Z,260
2018-07-14T03:23:23.521Z,280
2018-07-14T03:24:25.183Z,304
2018-07-14T03:25:26.858Z,324
2018-07-14T03:26:28.528Z,360
2018-07-14T03:27:30.189Z,384
2018-07-14T03:28:31.857Z,416
2018-07-14T03:29:33.522Z,448
2018-07-14T03:30:35.192Z,480
2018-07-14T03:31:36.856Z,520
2018-07-14T03:32:38.517Z,556
2018-07-14T03:33:40.191Z,592
2018-07-14T03:34:41.860Z,644
2018-07-14T03:35:43.529Z,680
2018-07-14T03:36:45.222Z,720
2018-07-14T03:37:46.865Z,756
2018-07-14T03:38:48.539Z,800
2018-07-14T03:39:50.231Z,848
2018-07-14T03:40:51.900Z,904
2018-07-14T03:41:53.581Z,948
2018-07-14T03:42:55.269Z,984
2018-07-14T03:43:56.934Z,1040
2018-07-14T03:44:58.602Z,1092
2018-07-14T03:46:00.265Z,1148
2018-07-14T03:47:01.929Z,1196
2018-07-14T03:48:03.608Z,1252
2018-07-14T03:49:05.275Z,1308
2018-07-14T03:50:06.937Z,1360
2018-07-14T03:51:08.607Z,1428
2018-07-14T03:52:10.278Z,1496
2018-07-14T03:53:11.935Z,1572
2018-07-14T03:54:13.603Z,1640
2018-07-14T03:55:15.267Z,1720
2018-07-14T03:56:16.940Z,1800
2018-07-14T03:57:18.657Z,1876
2018-07-14T03:58:20.327Z,1944
2018-07-14T03:59:21.998Z,2012
2018-07-14T04:00:23.663Z,2088
2018-07-14T04:01:25.343Z,2164
2018-07-14T04:02:27.009Z,2236
2018-07-14T04:03:28.695Z,2320
2018-07-14T04:04:30.354Z,2408
2018-07-14T04:05:32.027Z,2496
2018-07-14T04:06:33.756Z,2588
2018-07-14T04:07:35.382Z,2672
2018-07-14T04:08:37.052Z,2752
2018-07-14T04:09:38.715Z,2860
2018-07-14T04:10:40.388Z,2936
2018-07-14T04:11:42.069Z,3020
2018-07-14T04:12:43.732Z,3128
2018-07-14T04:13:45.412Z,3228
2018-07-14T04:14:47.123Z,3336
2018-07-14T04:15:48.757Z,3440
2018-07-14T04:16:50.430Z,3564
2018-07-14T04:17:52.102Z,3668
2018-07-14T04:18:53.781Z,3764
2018-07-14T04:19:55.451Z,3872
2018-07-14T04:20:57.126Z,3960
2018-07-14T04:21:58.800Z,4072
2018-07-14T04:23:00.470Z,4160
2018-07-14T04:24:02.145Z,4268
2018-07-14T04:25:03.824Z,4396
2018-07-14T04:26:05.531Z,4508
2018-07-14T04:27:07.199Z,4564
2018-07-14T04:28:08.871Z,4652
2018-07-14T04:29:10.541Z,4752
2018-07-14T04:30:12.214Z,4864
2018-07-14T04:31:13.891Z,5068
2018-07-14T04:32:15.555Z,5104
2018-07-14T04:33:17.227Z,5252
2018-07-14T04:34:18.899Z,5364
2018-07-14T04:35:20.566Z,5488
2018-07-14T04:36:22.238Z,5604
2018-07-14T04:37:23.907Z,5764
2018-07-14T04:38:25.568Z,5916
2018-07-14T04:39:27.241Z,6248
2018-07-14T04:40:28.911Z,6748
2018-07-14T04:41:30.593Z,7168
2018-07-14T04:42:32.300Z,7540
2018-07-14T04:43:33.937Z,7712
2018-07-14T04:44:35.611Z,7856
2018-07-14T04:45:37.285Z,8008
2018-07-14T04:46:38.958Z,8172
2018-07-14T04:47:40.637Z,8336
2018-07-14T04:48:42.305Z,8500
2018-07-14T04:49:43.983Z,8680
2018-07-14T04:50:45.648Z,8816
2018-07-14T04:51:47.323Z,9064
2018-07-14T04:52:48.999Z,9232
2018-07-14T04:53:50.670Z,9456
2018-07-14T04:54:52.340Z,9616
2018-07-14T04:55:54.012Z,9564
2018-07-14T04:56:55.692Z,9812
2018-07-14T04:57:57.359Z,9952
2018-07-14T04:58:59.025Z,10064
2018-07-14T05:00:00.706Z,10336
2018-07-14T05:01:02.393Z,10704
2018-07-14T05:02:04.067Z,10860
2018-07-14T05:03:05.768Z,10912
2018-07-14T05:04:07.452Z,11192
2018-07-14T05:05:09.121Z,11424
2018-07-14T05:06:10.788Z,11692
2018-07-14T05:07:12.457Z,11844
2018-07-14T05:08:14.133Z,11940
2018-07-14T05:09:15.816Z,11996
2018-07-14T05:10:17.495Z,12096
2018-07-14T05:11:19.164Z,12304
2018-07-14T05:12:20.835Z,12540
2018-07-14T05:13:22.504Z,12696
2018-07-14T05:14:24.175Z,12812
2018-07-14T05:15:25.855Z,12956
2018-07-14T05:16:27.532Z,13280
2018-07-14T05:17:29.200Z,13664
2018-07-14T05:18:30.866Z,13812
2018-07-14T05:19:32.543Z,13812
2018-07-14T05:20:34.207Z,13788
2018-07-14T05:21:35.881Z,13828
2018-07-14T05:22:37.565Z,13936
2018-07-14T05:23:39.240Z,14124
2018-07-14T05:24:40.918Z,14412
2018-07-14T05:25:42.589Z,14664
2018-07-14T05:26:44.276Z,14804
2018-07-14T05:27:45.944Z,14908
2018-07-14T05:28:47.626Z,15008
2018-07-14T05:29:49.292Z,15256
2018-07-14T05:30:50.971Z,15648
2018-07-14T05:31:52.663Z,16120
2018-07-14T05:32:54.344Z,16308
2018-07-14T05:33:56.015Z,16640
2018-07-14T05:34:57.684Z,16896
2018-07-14T05:35:59.364Z,16832
2018-07-14T05:37:01.034Z,17280
2018-07-14T05:38:02.700Z,18016
2018-07-14T05:39:04.368Z,18592
2018-07-14T05:40:06.067Z,19008
2018-07-14T05:41:07.744Z,19808
2018-07-14T05:42:09.418Z,20224
2018-07-14T05:43:11.095Z,20096
2018-07-14T05:44:12.844Z,20032
2018-07-14T05:45:14.513Z,20000
2018-07-14T05:46:16.191Z,20320
2018-07-14T05:47:17.869Z,20832
2018-07-14T05:48:19.700Z,21440
2018-07-14T05:49:21.379Z,21824
2018-07-14T05:50:23.059Z,21728
2018-07-14T05:51:24.742Z,22144
2018-07-14T05:52:26.422Z,23584
2018-07-14T05:53:28.204Z,24960
2018-07-14T05:54:29.879Z,26496
2018-07-14T05:55:31.605Z,26880
2018-07-14T06:01:58.795Z,21792
2018-07-14T06:03:00.475Z,21536
2018-07-14T06:04:02.148Z,21600
2018-07-14T06:05:03.815Z,21504
2018-07-14T06:06:05.513Z,21600
2018-07-14T06:07:07.249Z,21728
2018-07-14T06:08:08.922Z,21952
2018-07-14T06:09:10.600Z,21952
2018-07-14T06:10:12.282Z,22048
2018-07-14T06:11:13.964Z,22144
2018-07-14T06:12:15.632Z,22560
2018-07-14T06:13:17.309Z,22752
2018-07-14T06:14:19.074Z,22976
2018-07-14T06:15:20.628Z,23040
2018-07-14T06:16:22.309Z,23552
2018-07-14T06:17:24.072Z,24032
2018-07-14T06:18:25.731Z,25792
2018-07-14T06:19:27.409Z,29024
2018-07-14T06:20:29.076Z,32000
2018-07-14T06:21:30.756Z,33920
2018-07-14T06:22:32.435Z,34880
2018-07-14T06:23:34.126Z,35840
2018-07-14T06:24:35.806Z,35680
2018-07-14T06:25:37.476Z,35360
2018-07-14T06:26:39.154Z,37536
2018-07-14T06:27:40.836Z,39520
2018-07-14T06:28:42.519Z,40768
2018-07-14T06:29:44.184Z,41152
2018-07-14T06:30:45.876Z,40480
2018-07-14T06:31:47.539Z,41088
2018-07-14T06:32:49.214Z,41824
2018-07-14T06:33:50.906Z,41632
2018-07-14T06:34:52.586Z,44096
2018-07-14T06:35:54.263Z,45248
2018-07-14T06:36:55.947Z,44608
2018-07-14T06:37:57.621Z,44576
2018-07-14T06:38:59.299Z,45760
2018-07-14T06:40:00.977Z,47840
2018-07-14T06:41:02.721Z,48608
2018-07-14T06:42:04.391Z,48832
2018-07-14T06:43:06.101Z,49056
2018-07-14T06:44:07.826Z,48896
2018-07-14T06:45:09.506Z,49824
2018-07-14T06:46:11.193Z,50368
2018-07-14T06:47:12.872Z,49920
2018-07-14T06:48:14.556Z,50720
2018-07-14T06:49:16.305Z,51424
2018-07-14T06:50:17.995Z,52512
2018-07-14T06:51:19.672Z,54080
2018-07-14T06:52:21.346Z,54944
2018-07-14T06:53:23.027Z,54432
2018-07-14T06:54:24.707Z,53952
2018-07-14T06:55:26.390Z,54624
2018-07-14T06:56:28.079Z,55008
2018-07-14T06:57:29.746Z,55936
2018-07-14T06:58:31.431Z,58048
2018-07-14T06:59:33.128Z,58272
2018-07-14T07:00:34.830Z,58368
2018-07-14T07:01:36.521Z,59648
2018-07-14T07:02:38.199Z,59520
2018-07-14T07:03:39.892Z,60320
2018-07-14T07:04:41.579Z,61568
2018-07-14T07:05:43.354Z,63136
2018-07-14T07:06:45.049Z,63040
2018-07-14T07:07:46.722Z,61664
2018-07-14T07:08:48.404Z,62976
2018-07-14T07:09:50.206Z,65248
2018-07-14T07:10:51.853Z,66368
2018-07-14T07:11:53.562Z,67488
2018-07-14T07:12:55.284Z,66944
2018-07-14T07:13:56.970Z,66784
2018-07-14T07:14:58.811Z,67296
2018-07-14T07:16:00.523Z,65312
2018-07-14T07:17:02.193Z,65152
2018-07-14T07:18:03.875Z,67808
2018-07-14T07:19:05.593Z,69792
2018-07-14T07:20:07.354Z,69952
2018-07-14T07:21:09.037Z,69184
2018-07-14T07:22:10.739Z,70848
2018-07-14T07:23:13.141Z,69504
2018-07-14T07:24:14.846Z,71040
2018-07-14T07:25:16.673Z,71552
2018-07-14T07:26:18.337Z,72832
2018-07-14T07:27:20.033Z,73216
2018-07-14T07:28:21.741Z,72512
2018-07-14T07:29:23.435Z,72096
2018-07-14T07:30:25.116Z,74208
2018-07-14T07:31:26.810Z,74080
2018-07-14T07:32:28.492Z,74688
2018-07-14T07:33:30.187Z,75680
2018-07-14T07:34:31.890Z,75136
2018-07-14T07:35:33.568Z,75584
2018-07-14T07:36:35.255Z,75232
2018-07-14T07:37:36.936Z,75136
2018-07-14T07:38:38.630Z,75904
2018-07-14T07:39:40.317Z,76256
2018-07-14T07:40:42.002Z,76288
2018-07-14T07:41:43.693Z,76128
2018-07-14T07:42:46.183Z,76064
2018-07-14T07:43:47.868Z,78688
2018-07-14T07:44:49.580Z,79936
2018-07-14T07:45:51.274Z,77856
2018-07-14T07:46:52.974Z,77696
2018-07-14T07:47:54.673Z,78784
2018-07-14T07:48:56.366Z,80352
2018-07-14T07:49:58.045Z,81088
2018-07-14T07:50:59.755Z,78784
2018-07-14T07:52:01.424Z,77664
2018-07-14T07:53:03.119Z,77792
2018-07-14T07:54:04.794Z,78656
2018-07-14T07:55:06.488Z,78752
2018-07-14T07:56:08.817Z,79264
2018-07-14T07:57:10.522Z,78944
2018-07-14T07:58:12.241Z,79104
2018-07-14T07:59:13.919Z,80096
2018-07-14T08:00:15.599Z,81184
2018-07-14T08:01:17.291Z,80896
2018-07-14T08:02:18.974Z,80864
2018-07-14T08:03:20.669Z,80640
2018-07-14T08:04:22.354Z,77344
2018-07-14T08:05:24.037Z,75488
2018-07-14T08:06:25.729Z,80000
2018-07-14T08:07:27.414Z,83872
2018-07-14T08:08:29.130Z,83712
2018-07-14T08:09:30.793Z,82816
2018-07-14T08:10:32.493Z,82688
2018-07-14T08:11:34.191Z,82560
2018-07-14T08:12:35.864Z,81920
2018-07-14T08:13:37.546Z,82496
2018-07-14T08:14:39.242Z,81888
2018-07-14T08:15:40.928Z,79296
2018-07-14T08:16:42.615Z,78944
2018-07-14T08:17:44.300Z,80480
2018-07-14T08:18:46.006Z,81152
2018-07-14T08:19:47.691Z,81184
2018-07-14T08:20:49.370Z,79296
2018-07-14T08:21:51.069Z,80480
2018-07-14T08:22:52.827Z,82112
2018-07-14T08:23:54.471Z,84288
2018-07-14T08:24:56.171Z,83936
2018-07-14T08:25:57.854Z,86624
2018-07-14T08:26:59.575Z,87424
2018-07-14T08:28:01.258Z,85920
2018-07-14T08:29:02.950Z,86240
2018-07-14T08:30:04.641Z,88320
2018-07-14T08:31:06.727Z,87776
2018-07-14T08:32:08.414Z,89984
2018-07-14T08:33:10.188Z,90496
2018-07-14T08:34:11.888Z,92992
2018-07-14T08:35:13.583Z,95008
2018-07-14T08:36:15.296Z,96032
2018-07-14T08:37:16.990Z,96448
2018-07-14T08:38:18.731Z,97664
2018-07-14T08:39:20.419Z,98528
2018-07-14T08:40:22.156Z,101472
2018-07-14T08:41:23.847Z,102880
2018-07-14T08:42:25.573Z,105376
2018-07-14T08:43:27.265Z,108096
2018-07-14T08:44:28.956Z,108608
2018-07-14T08:45:30.659Z,110208
2018-07-14T08:46:32.346Z,110880
2018-07-14T08:47:34.061Z,111840
2018-07-14T08:48:35.746Z,110528
2018-07-14T08:49:37.434Z,113216
2018-07-14T08:50:39.123Z,36448
2018-07-14T08:51:40.815Z,43232
2018-07-14T08:52:42.514Z,115968
2018-07-14T08:53:44.205Z,111168
2018-07-14T08:54:45.941Z,115680
2018-07-14T08:55:47.631Z,89152
2018-07-14T08:56:49.336Z,110816
2018-07-14T08:57:51.027Z,97728
2018-07-14T08:58:53.465Z,108992
2018-07-14T08:59:55.166Z,32512
2018-07-14T09:00:56.849Z,29792
2018-07-14T09:01:58.574Z,16764
2018-07-14T09:03:00.256Z,18176
2018-07-14T09:04:01.943Z,14268
2018-07-14T09:05:03.641Z,12548
2018-07-14T09:06:05.416Z,11212
2018-07-14T09:07:07.116Z,9876
2018-07-14T09:08:08.809Z,9192
2018-07-14T09:09:10.498Z,8500
2018-07-14T09:10:12.191Z,8708
2018-07-14T09:11:13.892Z,8908
2018-07-14T09:12:15.581Z,9136
2018-07-14T09:13:17.276Z,9924
2018-07-14T09:14:18.959Z,11000
2018-07-14T09:15:20.702Z,12080
2018-07-14T09:16:22.450Z,14152
2018-07-14T09:17:24.066Z,17032
2018-07-14T09:18:25.748Z,84320
2018-07-14T09:19:27.438Z,120288
2018-07-14T09:20:29.113Z,113856
2018-07-14T09:21:30.802Z,121536
2018-07-14T09:22:32.543Z,125440
2018-07-14T09:23:34.170Z,129888
2018-07-14T09:24:35.854Z,132960
2018-07-14T09:25:37.543Z,136160
2018-07-14T09:26:39.235Z,136352
2018-07-14T09:27:40.916Z,134784
2018-07-14T09:28:42.609Z,136448
2018-07-14T09:29:44.295Z,134720
2018-07-14T09:30:45.984Z,132000
2018-07-14T09:31:47.685Z,132000
2018-07-14T09:32:49.419Z,132672
2018-07-14T09:33:51.106Z,131648
2018-07-14T09:34:53.632Z,132320
2018-07-14T09:35:55.323Z,133696
2018-07-14T09:43:06.683Z,120544
2018-07-14T09:44:08.501Z,120320
2018-07-14T09:45:10.355Z,120896
2018-07-14T09:46:12.145Z,121280
2018-07-14T09:47:14.182Z,120032
2018-07-14T09:48:16.073Z,120736
2018-07-14T09:49:17.895Z,117856
2018-07-14T09:50:20.204Z,120864
2018-07-14T09:51:21.991Z,119520
2018-07-14T09:52:23.781Z,27488
2018-07-14T09:53:25.531Z,26848
2018-07-14T09:54:27.400Z,53376
2018-07-14T09:55:29.152Z,58016
2018-07-14T10:01:25.229Z,21184
2018-07-14T10:02:26.911Z,19104
2018-07-14T10:03:28.687Z,20160
2018-07-14T10:04:30.329Z,21024
2018-07-14T10:05:32.019Z,27104
2018-07-14T10:06:33.716Z,26848
2018-07-14T10:07:37.375Z,80736
2018-07-14T10:08:39.085Z,35808
2018-07-14T10:09:40.781Z,35040
2018-07-14T10:10:42.513Z,36704
2018-07-14T10:11:44.892Z,38048
2018-07-14T10:12:46.583Z,41248
2018-07-14T10:13:48.284Z,41632
2018-07-14T10:14:50.277Z,107552
2018-07-14T10:15:51.949Z,108672
2018-07-14T10:16:53.778Z,100736
2018-07-14T10:17:55.455Z,105728
2018-07-14T10:18:57.204Z,106784
2018-07-14T10:19:58.919Z,59552
2018-07-14T10:21:00.875Z,47072
2018-07-14T10:22:02.617Z,50560
2018-07-14T10:23:04.504Z,94688
2018-07-14T10:24:06.437Z,82464
2018-07-14T10:25:08.121Z,36896
2018-07-14T10:26:09.812Z,33568
2018-07-14T10:27:11.542Z,30688
2018-07-14T10:28:13.422Z,28544
2018-07-14T10:29:15.648Z,28800
2018-07-14T10:30:17.435Z,29824
2018-07-14T10:31:19.502Z,30496
2018-07-14T10:32:22.910Z,33792
2018-07-14T10:33:24.736Z,82976
2018-07-14T10:34:26.579Z,116896
2018-07-14T10:35:28.500Z,115328
2018-07-14T10:36:30.518Z,91360
2018-07-14T10:37:33.225Z,36640
2018-07-14T10:38:35.063Z,36320
2018-07-14T10:39:37.573Z,33952
2018-07-14T10:40:40.077Z,33952
2018-07-14T10:41:42.748Z,38496
2018-07-14T10:42:44.606Z,47072
2018-07-14T10:43:46.423Z,128768
2018-07-14T10:44:48.288Z,131616
2018-07-14T10:45:50.309Z,133056
2018-07-14T10:46:52.212Z,128800
2018-07-14T10:47:53.957Z,101056
2018-07-14T10:48:55.748Z,125728
2018-07-14T10:49:57.598Z,41792
2018-07-14T10:50:59.390Z,126080
2018-07-14T10:52:01.336Z,121408
2018-07-14T10:53:03.192Z,126944
2018-07-14T10:54:05.047Z,117824
2018-07-14T10:55:06.842Z,35040
2018-07-14T10:56:08.624Z,53952
2018-07-14T10:57:10.461Z,42720
2018-07-14T10:58:12.260Z,129952
2018-07-14T10:59:14.135Z,133920
2018-07-14T11:00:15.989Z,132256
2018-07-14T11:01:17.794Z,128288
2018-07-14T11:02:19.551Z,123712
2018-07-14T11:03:21.486Z,129248
2018-07-14T11:04:23.386Z,135616
2018-07-14T11:05:25.429Z,35392
2018-07-14T11:06:28.427Z,40672
2018-07-14T11:07:30.619Z,131200
2018-07-14T11:08:33.723Z,103296
2018-07-14T11:09:50.679Z,34176
2018-07-14T11:12:38.958Z,106048
2018-07-14T11:13:44.059Z,143904
2018-07-14T11:14:52.768Z,28704
2018-07-14T11:18:51.041Z,24768
2018-07-14T11:20:03.664Z,61056
2018-07-14T11:21:32.344Z,150816
2018-07-14T11:22:43.249Z,128224
2018-07-14T11:23:50.094Z,29056
2018-07-14T11:24:59.647Z,26368
2018-07-14T11:26:51.978Z,24800
2018-07-14T11:27:58.800Z,27008
2018-07-14T11:29:06.354Z,28544
2018-07-14T14:01:06.234Z,23872
2018-07-14T14:02:07.919Z,19704
2018-07-14T14:03:09.601Z,18172
2018-07-14T14:04:11.294Z,16356
2018-07-14T14:05:12.983Z,15372
2018-07-14T14:06:14.677Z,14924
2018-07-14T14:07:16.365Z,15180
2018-07-14T14:08:18.060Z,15408
2018-07-14T14:09:19.751Z,15468
2018-07-14T14:10:21.423Z,16136
2018-07-14T14:11:23.233Z,16104
2018-07-14T14:12:24.783Z,17620
2018-07-14T14:13:26.474Z,20384
2018-07-14T14:14:28.150Z,68672
2018-07-14T14:15:29.831Z,66240
2018-07-14T14:16:31.521Z,63328
2018-07-14T14:17:33.212Z,60768
2018-07-14T14:18:34.897Z,65280
2018-07-14T14:19:36.575Z,66176
2018-07-14T14:20:38.259Z,63584
2018-07-14T14:21:39.958Z,62528
2018-07-14T14:22:41.637Z,22848
2018-07-14T14:23:43.326Z,21568
2018-07-14T14:24:45.007Z,52416
2018-07-14T14:25:46.714Z,29280
2018-07-14T14:26:48.389Z,17856
2018-07-14T14:27:50.078Z,17116
2018-07-14T14:28:51.821Z,17872
2018-07-14T14:29:53.508Z,37728
2018-07-14T14:30:55.233Z,42656
2018-07-14T14:31:57.082Z,43040
2018-07-14T14:32:58.729Z,23360
2018-07-14T14:34:00.417Z,44576
2018-07-14T14:35:02.096Z,49184
2018-07-14T14:36:03.797Z,51488
2018-07-14T14:37:05.474Z,51904
2018-07-14T14:38:07.166Z,49088
2018-07-14T14:39:08.882Z,27712
2018-07-14T14:40:10.555Z,23200
2018-07-14T14:41:12.243Z,47712
2018-07-14T14:42:14.006Z,53152
2018-07-14T14:43:15.690Z,53216
2018-07-14T14:44:17.400Z,53216
2018-07-14T14:45:19.111Z,54496
2018-07-14T14:46:20.810Z,28928
2018-07-14T14:47:22.516Z,25856
2018-07-14T14:48:24.216Z,22880
2018-07-14T14:49:25.911Z,22176
2018-07-14T14:50:27.595Z,19808
2018-07-14T14:51:29.368Z,18816
2018-07-14T14:52:31.002Z,17764
2018-07-14T14:53:32.735Z,15668
2018-07-14T14:54:34.460Z,14944
2018-07-14T14:55:36.170Z,14304
2018-07-14T14:56:37.968Z,13748
2018-07-14T14:57:39.757Z,14304
2018-07-14T14:58:41.576Z,15504
2018-07-14T14:59:43.962Z,15840
2018-07-14T15:00:45.698Z,16124
2018-07-14T15:01:47.415Z,16860
2018-07-14T15:02:49.098Z,24832
2018-07-14T15:03:50.847Z,53024
2018-07-14T15:04:52.592Z,49952
2018-07-14T15:05:54.206Z,44864
2018-07-14T15:06:55.995Z,41760
2018-07-14T15:07:57.709Z,38560
2018-07-14T15:08:59.398Z,35520
2018-07-14T15:10:01.093Z,32672
2018-07-14T15:11:02.786Z,30016
2018-07-14T15:12:04.482Z,27936
2018-07-14T15:13:06.203Z,26784
2018-07-14T15:14:07.887Z,25568
2018-07-14T15:15:09.586Z,23936
2018-07-14T15:16:11.289Z,23200
2018-07-14T15:17:12.966Z,22272
2018-07-14T15:18:14.663Z,21824
2018-07-14T15:19:16.359Z,21376
2018-07-14T15:20:18.035Z,21856
2018-07-14T15:21:19.729Z,22240
2018-07-14T15:22:21.437Z,22720
2018-07-14T15:23:23.143Z,23360
2018-07-14T15:24:24.857Z,23680
2018-07-14T15:25:26.533Z,23328
2018-07-14T15:26:28.232Z,22112
2018-07-14T15:27:29.918Z,21376
2018-07-14T15:28:31.674Z,20928
2018-07-14T15:29:33.391Z,19648
2018-07-14T15:30:35.111Z,20704
2018-07-14T15:31:36.807Z,20000
2018-07-14T15:32:38.589Z,19312
2018-07-14T15:33:40.238Z,18776
2018-07-14T15:34:41.948Z,18908
2018-07-14T15:35:43.676Z,18968
2018-07-14T15:36:45.363Z,19392
2018-07-14T15:37:47.062Z,19584
2018-07-14T15:38:48.754Z,19488
2018-07-14T15:39:50.444Z,18936
2018-07-14T15:40:52.135Z,18460
2018-07-14T15:41:53.882Z,18956
2018-07-14T15:42:55.626Z,18752
2018-07-14T15:43:57.313Z,18820
2018-07-14T15:44:59.728Z,18344
2018-07-14T15:46:01.416Z,17876
2018-07-14T15:47:03.099Z,18064
2018-07-14T15:48:09.016Z,17576
2018-07-14T15:49:10.693Z,17412
2018-07-14T15:50:12.412Z,17292
2018-07-14T15:51:14.116Z,17152
2018-07-14T15:52:15.815Z,17008
2018-07-14T15:53:17.500Z,16752
2018-07-14T15:54:19.999Z,16700
2018-07-14T15:55:21.720Z,16116
2018-07-14T15:56:23.424Z,16188
2018-07-14T15:57:25.128Z,16256
2018-07-14T15:58:26.823Z,15964
2018-07-14T15:59:29.329Z,15868
2018-07-14T16:00:31.027Z,15132
2018-07-14T16:01:32.713Z,15396
2018-07-14T16:02:34.398Z,15140
2018-07-14T16:03:36.137Z,14972
2018-07-14T16:04:37.855Z,14556
2018-07-14T16:05:39.544Z,14584
2018-07-14T16:06:41.234Z,14924
2018-07-14T16:07:42.929Z,14232
2018-07-14T16:08:44.628Z,13856
2018-07-14T16:09:47.018Z,14092
2018-07-14T16:10:49.277Z,13988
2018-07-14T16:11:50.978Z,13888
2018-07-14T16:12:53.232Z,13732
2018-07-14T16:13:54.916Z,13624
2018-07-14T16:14:56.618Z,13836
2018-07-14T16:15:58.309Z,13780
2018-07-14T16:16:59.992Z,13476
2018-07-14T16:18:01.699Z,13096
2018-07-14T16:19:03.482Z,13544
2018-07-14T16:20:05.057Z,13100
2018-07-14T16:21:06.748Z,13316
2018-07-14T16:22:08.434Z,13380
2018-07-14T16:23:10.137Z,14060
2018-07-14T16:24:11.831Z,13504
2018-07-14T16:25:13.529Z,13468
2018-07-14T16:26:15.252Z,13460
2018-07-14T16:27:16.958Z,13192
2018-07-14T16:28:18.718Z,13312
2018-07-14T16:29:20.374Z,13528
2018-07-14T16:30:22.080Z,13568
2018-07-14T16:31:23.782Z,13480
2018-07-14T16:32:25.481Z,13300
2018-07-14T16:33:27.170Z,13072
2018-07-14T16:34:28.870Z,12972
2018-07-14T16:35:30.618Z,12752
2018-07-14T16:36:32.409Z,12448
2018-07-14T16:37:34.090Z,12240
2018-07-14T16:38:35.780Z,12052
2018-07-14T16:39:37.480Z,11932
2018-07-14T16:40:39.208Z,12236